Time;durP1;ratioP1;P1;durP2;ratioP2;P2;SDS_P1;SDS_P2;PMS_P1;PMS_P2;Temp;Humidity;BMP_temperature;BMP_pressure;BME280_temperature;BME280_humidity;BME280_pressure;Samples;Min_cycle;Max_cycle;Signal;HPM_P1;HPM_P2
2022/04/05 00:02:07;;;;;;;29.10;8.30;;;10.50;71.10;;;;;;5069253;28;20040;-59
2022/04/05 00:04:33;;;;;;;26.50;9.02;;;10.50;71.20;;;;;;5100783;27;20038;-59
2022/04/05 00:06:58;;;;;;;38.85;10.02;;;10.40;71.50;;;;;;5103492;27;20495;-59
2022/04/05 00:09:24;;;;;;;24.92;8.18;;;10.40;71.60;;;;;;5105106;28;20024;-59
2022/04/05 00:11:50;;;;;;;31.02;8.70;;;10.40;71.60;;;;;;5083424;28;20036;-58
2022/04/05 00:14:15;;;;;;;25.98;8.68;;;10.40;71.70;;;;;;5067477;28;20114;-59
2022/04/05 00:16:41;;;;;;;20.00;7.55;;;10.40;71.40;;;;;;5101639;27;20027;-59
2022/04/05 00:19:06;;;;;;;29.77;7.57;;;10.40;71.30;;;;;;5084615;28;20383;-59
2022/04/05 00:21:32;;;;;;;20.42;7.70;;;10.40;71.30;;;;;;5101956;27;20064;-59
2022/04/05 00:23:57;;;;;;;20.80;8.25;;;10.40;71.20;;;;;;5084417;28;20038;-59
2022/04/05 00:26:23;;;;;;;23.73;7.43;;;10.40;71.20;;;;;;5100374;27;20032;-59
2022/04/05 00:28:48;;;;;;;22.10;7.80;;;10.40;71.20;;;;;;5102470;28;20062;-59
2022/04/05 00:31:14;;;;;;;22.83;8.55;;;10.40;71.10;;;;;;5119851;27;20071;-59
2022/04/05 00:33:40;;;;;;;25.67;7.88;;;10.40;71.20;;;;;;5106697;27;20031;-59
2022/04/05 00:36:05;;;;;;;23.25;8.02;;;10.40;71.30;;;;;;5103046;27;20451;-59
2022/04/05 00:38:31;;;;;;;26.30;7.55;;;10.40;71.20;;;;;;5121164;27;20031;-60
2022/04/05 00:40:56;;;;;;;24.10;7.38;;;10.30;71.20;;;;;;5103750;27;20374;-59
2022/04/05 00:43:22;;;;;;;16.60;7.28;;;10.30;71.20;;;;;;5122302;27;20562;-59
2022/04/05 00:45:47;;;;;;;19.05;8.20;;;10.30;71.10;;;;;;5121716;27;20123;-59
2022/04/05 00:48:18;;;;;;;18.45;7.32;;;10.30;71.10;;;;;;5122910;27;20023;-59
2022/04/05 00:50:43;;;;;;;15.27;5.63;;;10.30;71.10;;;;;;5087288;27;20382;-59
2022/04/05 00:53:09;;;;;;;25.15;7.43;;;10.30;71.20;;;;;;5125077;27;20035;-59
2022/04/05 00:55:35;;;;;;;17.13;6.60;;;10.30;71.20;;;;;;5086471;27;20028;-59
2022/04/05 00:58:02;;;;;;;19.67;7.10;;;10.30;71.10;;;;;;5104409;27;20030;-59
2022/04/05 01:00:27;;;;;;;14.25;6.78;;;10.30;71.10;;;;;;5102897;27;20028;-59
2022/04/05 01:02:54;;;;;;;24.17;7.60;;;10.30;71.20;;;;;;5122812;27;20471;-59
2022/04/05 01:05:19;;;;;;;18.38;7.47;;;10.20;71.10;;;;;;5085532;27;20548;-59
2022/04/05 01:07:46;;;;;;;17.88;6.85;;;10.20;71.10;;;;;;5102724;27;20047;-59
2022/04/05 01:10:11;;;;;;;19.52;6.72;;;10.20;71.20;;;;;;5101629;27;20700;-59
2022/04/05 01:12:37;;;;;;;18.15;6.68;;;10.20;71.10;;;;;;5122886;27;20027;-62
2022/04/05 01:15:03;;;;;;;15.05;6.97;;;10.20;71.20;;;;;;5104097;27;20023;-61
2022/04/05 01:17:29;;;;;;;16.70;6.65;;;10.20;71.20;;;;;;5104472;27;20080;-62
2022/04/05 01:19:55;;;;;;;20.65;7.70;;;10.20;71.20;;;;;;5122960;27;20031;-62
2022/04/05 01:22:20;;;;;;;19.23;8.27;;;10.20;71.20;;;;;;5122395;27;20428;-61
2022/04/05 01:24:46;;;;;;;14.38;7.47;;;10.20;71.20;;;;;;5122056;27;20023;-62
2022/04/05 01:27:19;;;;;;;16.20;7.53;;;10.20;71.90;;;;;;5119048;27;20111;-58
2022/04/05 01:29:44;;;;;;;18.95;7.78;;;10.10;71.20;;;;;;5116951;27;20135;-59
2022/04/05 01:32:10;;;;;;;19.77;7.35;;;10.10;71.10;;;;;;5101874;28;20058;-60
2022/04/05 01:34:36;;;;;;;22.67;8.35;;;10.10;71.10;;;;;;5101625;28;20105;-59
2022/04/05 01:37:03;;;;;;;15.50;7.43;;;10.10;71.20;;;;;;5082319;28;20053;-59
2022/04/05 01:39:30;;;;;;;17.55;7.50;;;10.10;71.30;;;;;;5103165;28;20435;-62
2022/04/05 01:41:57;;;;;;;16.92;7.03;;;10.10;71.20;;;;;;5102885;28;20293;-62
2022/04/05 01:44:23;;;;;;;10.30;6.63;;;10.10;71.10;;;;;;5102678;28;20425;-62
2022/04/05 01:46:49;;;;;;;12.85;6.65;;;10.10;71.10;;;;;;5099333;28;20280;-62
2022/04/05 01:49:14;;;;;;;18.20;7.25;;;10.10;71.10;;;;;;5101587;28;20455;-62
2022/04/05 01:51:40;;;;;;;12.10;6.57;;;10.00;71.20;;;;;;5081286;28;20046;-62
2022/04/05 01:54:10;;;;;;;16.90;6.60;;;10.00;71.30;;;;;;5066219;28;20035;-61
2022/04/05 01:56:45;;;;;;;16.20;6.93;;;10.00;71.20;;;;;;5081702;28;20048;-61
2022/04/05 01:59:13;;;;;;;11.82;6.55;;;10.00;71.20;;;;;;5099814;28;20043;-62
2022/04/05 02:01:39;;;;;;;14.32;6.55;;;10.00;71.20;;;;;;5067901;28;20030;-62
2022/04/05 02:04:04;;;;;;;16.05;6.43;;;10.00;71.20;;;;;;5067200;28;20024;-62
2022/04/05 02:06:30;;;;;;;13.43;6.32;;;10.00;71.30;;;;;;5083604;28;20035;-62
2022/04/05 02:08:56;;;;;;;9.80;6.10;;;10.00;71.30;;;;;;5067985;28;20042;-62
2022/04/05 02:11:22;;;;;;;14.52;6.50;;;10.00;71.40;;;;;;5082397;28;20027;-62
2022/04/05 02:13:48;;;;;;;11.18;6.50;;;10.00;71.40;;;;;;5066674;28;20099;-61
2022/04/05 02:16:14;;;;;;;11.30;6.28;;;10.00;71.40;;;;;;5098997;28;20790;-61
2022/04/05 02:18:41;;;;;;;9.82;6.18;;;9.90;71.40;;;;;;5082557;28;20080;-62
2022/04/05 02:21:06;;;;;;;9.85;6.20;;;9.90;71.30;;;;;;5099048;28;20490;-62
2022/04/05 02:23:32;;;;;;;14.85;6.28;;;9.90;71.40;;;;;;5081625;28;20039;-62
2022/04/05 02:25:57;;;;;;;9.65;6.05;;;9.90;71.40;;;;;;5082818;28;20016;-62
2022/04/05 02:28:23;;;;;;;10.90;6.30;;;9.90;71.40;;;;;;5103233;28;20437;-62
2022/04/05 02:30:49;;;;;;;11.52;5.95;;;9.90;71.40;;;;;;5083220;28;20042;-62
2022/04/05 02:33:14;;;;;;;9.38;6.15;;;9.90;71.50;;;;;;5083756;28;20031;-61
2022/04/05 02:35:40;;;;;;;14.18;6.47;;;9.80;71.40;;;;;;5097409;28;20849;-62
2022/04/05 02:38:05;;;;;;;12.32;5.70;;;9.80;71.40;;;;;;5104175;28;20432;-62
2022/04/05 02:40:31;;;;;;;9.23;5.60;;;9.80;71.50;;;;;;5095838;28;20027;-61
2022/04/05 02:42:56;;;;;;;8.82;5.28;;;9.80;71.50;;;;;;5061030;28;20054;-62
2022/04/05 02:45:22;;;;;;;8.70;5.20;;;9.80;71.60;;;;;;5079762;28;20111;-62
2022/04/05 02:47:48;;;;;;;11.13;6.35;;;9.80;71.60;;;;;;5068321;28;20038;-62
2022/04/05 02:50:17;;;;;;;15.57;6.00;;;9.80;71.60;;;;;;5104335;27;20020;-62
2022/04/05 02:52:45;;;;;;;9.68;5.65;;;9.80;71.60;;;;;;5075219;28;20109;-61
2022/04/05 02:55:11;;;;;;;11.00;5.28;;;9.80;71.60;;;;;;5081643;28;20035;-62
2022/04/05 02:57:37;;;;;;;11.25;6.22;;;9.80;71.70;;;;;;5068286;28;20031;-61
2022/04/05 03:00:03;;;;;;;12.40;6.05;;;9.80;71.70;;;;;;5084005;28;20039;-62
2022/04/05 03:02:29;;;;;;;8.90;5.32;;;9.80;71.70;;;;;;5078029;28;20687;-62
2022/04/05 03:04:55;;;;;;;8.75;5.75;;;9.80;71.70;;;;;;5100098;28;20115;-62
2022/04/05 03:07:20;;;;;;;9.07;5.72;;;9.80;71.60;;;;;;5104459;28;20080;-61
2022/04/05 03:09:45;;;;;;;11.57;6.30;;;9.80;72.30;;;;;;5100387;28;20051;-59
2022/04/05 03:12:11;;;;;;;15.40;6.68;;;9.80;71.70;;;;;;5080613;28;20039;-59
2022/04/05 03:14:39;;;;;;;9.93;6.10;;;9.70;71.60;;;;;;5083298;28;20066;-59
2022/04/05 03:17:04;;;;;;;18.15;6.63;;;9.70;71.60;;;;;;5105470;28;20028;-59
2022/04/05 03:19:30;;;;;;;7.50;5.65;;;9.70;71.60;;;;;;5108869;28;20124;-59
2022/04/05 03:21:56;;;;;;;12.13;6.47;;;9.70;71.70;;;;;;5083390;28;20063;-59
2022/04/05 03:24:21;;;;;;;11.27;6.20;;;9.70;72.50;;;;;;5106302;28;20062;-59
2022/04/05 03:26:47;;;;;;;14.57;6.82;;;9.70;71.70;;;;;;5080456;28;20020;-59
2022/04/05 03:29:12;;;;;;;10.88;6.45;;;9.70;71.70;;;;;;5098767;28;20571;-60
2022/04/05 03:31:38;;;;;;;9.68;6.10;;;9.70;71.70;;;;;;5123443;27;20423;-59
2022/04/05 03:34:03;;;;;;;7.93;5.30;;;9.70;71.70;;;;;;5126328;27;20060;-59
2022/04/05 03:36:29;;;;;;;8.68;5.68;;;9.70;71.80;;;;;;5127139;27;20039;-59
2022/04/05 03:38:54;;;;;;;8.02;5.20;;;9.70;71.80;;;;;;5126371;27;20031;-59
2022/04/05 03:41:21;;;;;;;9.77;6.43;;;9.70;71.80;;;;;;5124461;27;20043;-59
2022/04/05 03:43:46;;;;;;;8.25;5.35;;;9.70;71.80;;;;;;5122408;27;20030;-59
2022/04/05 03:46:12;;;;;;;8.68;5.95;;;9.70;71.90;;;;;;5104753;27;20069;-59
2022/04/05 03:48:37;;;;;;;8.05;6.05;;;9.60;71.90;;;;;;5123992;27;20038;-60
2022/04/05 03:51:09;;;;;;;10.32;5.85;;;9.60;71.80;;;;;;5122167;27;20607;-59
2022/04/05 03:53:34;;;;;;;8.55;5.63;;;9.60;71.90;;;;;;5107362;27;20511;-59
2022/04/05 03:56:00;;;;;;;12.52;5.32;;;9.70;72.70;;;;;;5102234;27;20074;-59
2022/04/05 03:58:26;;;;;;;12.40;6.25;;;9.60;71.90;;;;;;5125154;27;20450;-59
2022/04/05 04:00:51;;;;;;;11.13;5.72;;;9.60;71.90;;;;;;5125708;27;20027;-59
2022/04/05 04:03:17;;;;;;;9.05;6.07;;;9.60;71.90;;;;;;5090371;27;20076;-59
2022/04/05 04:05:42;;;;;;;9.70;5.93;;;9.60;71.90;;;;;;5123327;27;20027;-59
2022/04/05 04:08:08;;;;;;;11.65;5.97;;;9.60;72.00;;;;;;5125528;27;20039;-59
2022/04/05 04:10:34;;;;;;;10.00;5.90;;;9.60;71.90;;;;;;5122371;27;20031;-59
2022/04/05 04:12:59;;;;;;;10.23;5.55;;;9.60;72.00;;;;;;5106819;27;20031;-59
2022/04/05 04:15:25;;;;;;;206.57;24.60;;;9.60;72.10;;;;;;5122910;27;20050;-60
2022/04/05 04:17:50;;;;;;;38.15;8.50;;;9.50;72.00;;;;;;5088660;27;20123;-58
2022/04/05 04:20:16;;;;;;;48.95;9.88;;;9.50;72.00;;;;;;5105529;27;20225;-59
2022/04/05 04:22:41;;;;;;;30.20;8.65;;;9.50;72.10;;;;;;5125997;27;20121;-59
2022/04/05 04:25:07;;;;;;;36.85;8.23;;;9.60;72.20;;;;;;5125379;27;20062;-60
2022/04/05 04:27:34;;;;;;;33.65;8.73;;;9.50;72.00;;;;;;5105582;27;20046;-60
2022/04/05 04:30:00;;;;;;;31.15;8.00;;;9.50;72.00;;;;;;5103880;27;20047;-60
2022/04/05 04:32:25;;;;;;;26.83;7.53;;;9.50;72.10;;;;;;5092433;27;20051;-59
2022/04/05 04:34:51;;;;;;;29.50;8.65;;;9.50;72.00;;;;;;5107642;27;20399;-59
2022/04/05 04:37:16;;;;;;;31.65;7.57;;;9.50;72.00;;;;;;5068163;28;20521;-59
2022/04/05 04:39:42;;;;;;;29.15;7.93;;;9.50;72.00;;;;;;5072038;28;20031;-59
2022/04/05 04:42:07;;;;;;;37.17;7.35;;;9.50;71.90;;;;;;5103752;27;20029;-59
2022/04/05 04:44:33;;;;;;;28.23;7.78;;;9.50;71.90;;;;;;5088488;28;20023;-59
2022/04/05 04:46:59;;;;;;;29.00;7.25;;;9.50;72.00;;;;;;5073063;27;20467;-59
2022/04/05 04:49:24;;;;;;;27.48;7.47;;;9.50;72.00;;;;;;5107943;27;20107;-59
2022/04/05 04:51:50;;;;;;;23.13;7.82;;;9.40;71.80;;;;;;5086909;27;20032;-59
2022/04/05 04:54:15;;;;;;;23.30;7.45;;;9.50;72.00;;;;;;5088046;27;20027;-59
2022/04/05 04:56:41;;;;;;;19.48;7.47;;;9.50;72.00;;;;;;5102914;27;20109;-59
2022/04/05 04:59:06;;;;;;;25.55;6.72;;;9.50;72.10;;;;;;5086994;27;20263;-59
2022/04/05 05:01:32;;;;;;;27.80;7.47;;;9.50;72.10;;;;;;5085442;27;20206;-59
2022/04/05 05:03:58;;;;;;;22.83;7.22;;;9.50;72.00;;;;;;5070193;27;20053;-59
2022/04/05 05:06:23;;;;;;;27.58;7.38;;;9.50;72.20;;;;;;5070204;27;20126;-60
2022/04/05 05:08:49;;;;;;;29.33;7.93;;;9.50;72.20;;;;;;5106608;27;20110;-59
2022/04/05 05:11:14;;;;;;;17.23;7.75;;;9.50;72.30;;;;;;5105259;27;20530;-59
2022/04/05 05:13:40;;;;;;;21.92;7.30;;;9.50;72.40;;;;;;5105541;27;20051;-59
2022/04/05 05:16:05;;;;;;;27.00;8.05;;;9.50;72.50;;;;;;5104574;27;20027;-59
2022/04/05 05:18:31;;;;;;;25.05;7.63;;;9.50;72.60;;;;;;5082078;28;20324;-59
2022/04/05 05:20:56;;;;;;;18.98;7.05;;;9.50;72.60;;;;;;5105134;27;20055;-59
2022/04/05 05:23:22;;;;;;;26.67;6.65;;;9.50;72.70;;;;;;5085122;27;20106;-59
2022/04/05 05:25:48;;;;;;;26.00;7.45;;;9.50;72.70;;;;;;5070445;27;20047;-59
2022/04/05 05:28:13;;;;;;;19.92;6.47;;;9.50;72.70;;;;;;5104931;27;20409;-62
2022/04/05 05:30:39;;;;;;;18.45;7.40;;;9.40;72.60;;;;;;5093540;27;20498;-62
2022/04/05 05:33:05;;;;;;;25.65;7.10;;;9.50;72.70;;;;;;5106198;27;20020;-62
2022/04/05 05:35:30;;;;;;;16.55;7.13;;;9.50;72.70;;;;;;5086051;27;20039;-62
2022/04/05 05:37:56;;;;;;;22.67;6.90;;;9.50;72.70;;;;;;5067458;27;20031;-62
2022/04/05 05:40:21;;;;;;;21.17;7.03;;;9.40;72.70;;;;;;5105194;27;20472;-61
2022/04/05 05:42:55;;;;;;;18.13;7.43;;;9.50;72.80;;;;;;5082718;28;20336;-61
2022/04/05 05:45:21;;;;;;;25.70;7.90;;;9.40;72.80;;;;;;5082144;28;20084;-62
2022/04/05 05:47:46;;;;;;;25.25;7.70;;;9.40;72.80;;;;;;5085732;27;20036;-62
2022/04/05 05:50:13;;;;;;;20.75;6.75;;;9.40;72.80;;;;;;5086800;27;20672;-62
2022/04/05 05:52:42;;;;;;;19.55;8.30;;;9.40;72.80;;;;;;5103075;27;20479;-62
2022/04/05 05:55:08;;;;;;;20.05;7.40;;;9.40;72.80;;;;;;5091153;28;20066;-62
2022/04/05 05:57:34;;;;;;;16.00;6.68;;;9.40;72.80;;;;;;5069904;27;20019;-61
2022/04/05 06:00:01;;;;;;;14.77;7.03;;;9.40;72.80;;;;;;5100865;27;20027;-62
2022/04/05 06:02:26;;;;;;;17.80;7.22;;;9.40;72.70;;;;;;5069322;28;20074;-62
2022/04/05 06:04:52;;;;;;;18.00;6.85;;;9.40;72.70;;;;;;5102059;27;20071;-62
2022/04/05 06:07:17;;;;;;;20.17;7.15;;;9.40;72.70;;;;;;5102743;27;20098;-62
2022/04/05 06:09:43;;;;;;;19.23;7.47;;;9.40;72.70;;;;;;5085027;27;20474;-62
2022/04/05 06:12:09;;;;;;;14.20;6.75;;;9.40;72.70;;;;;;5103981;27;20024;-62
2022/04/05 06:14:34;;;;;;;16.55;7.15;;;9.40;72.50;;;;;;5102902;27;20035;-62
2022/04/05 06:16:59;;;;;;;13.73;7.50;;;9.40;72.50;;;;;;5078570;28;20521;-62
2022/04/05 06:19:25;;;;;;;15.75;6.93;;;9.40;72.50;;;;;;5095708;28;20071;-62
2022/04/05 06:21:51;;;;;;;17.10;6.30;;;9.40;72.40;;;;;;5099093;27;20019;-62
2022/04/05 06:24:18;;;;;;;12.77;7.00;;;9.40;72.50;;;;;;5083211;27;20027;-62
2022/04/05 06:26:43;;;;;;;16.27;6.75;;;9.40;72.40;;;;;;5104527;27;20020;-62
2022/04/05 06:29:09;;;;;;;14.48;6.53;;;9.40;72.40;;;;;;5087588;28;20100;-62
2022/04/05 06:31:34;;;;;;;20.92;6.55;;;9.40;72.30;;;;;;5085785;28;20389;-62
2022/04/05 06:34:02;;;;;;;14.25;6.80;;;9.40;72.30;;;;;;5084900;28;20235;-61
2022/04/05 06:36:29;;;;;;;25.80;6.95;;;9.40;72.20;;;;;;5096886;28;20032;-61
2022/04/05 06:38:54;;;;;;;14.60;6.72;;;9.40;72.20;;;;;;5061370;28;20026;-62
2022/04/05 06:41:20;;;;;;;12.82;6.40;;;9.40;72.10;;;;;;5101109;28;20031;-62
2022/04/05 06:43:46;;;;;;;17.35;6.78;;;9.40;72.10;;;;;;5098085;28;20035;-61
2022/04/05 06:46:11;;;;;;;12.27;6.55;;;9.40;72.20;;;;;;5090509;28;20097;-61
2022/04/05 06:48:37;;;;;;;13.27;6.65;;;9.40;72.20;;;;;;5091493;28;20125;-62
2022/04/05 06:51:02;;;;;;;12.10;6.32;;;9.40;72.10;;;;;;5081811;28;20042;-62
2022/04/05 06:53:28;;;;;;;15.98;6.50;;;9.40;72.10;;;;;;5097877;28;20050;-62
2022/04/05 06:55:53;;;;;;;14.15;6.35;;;9.40;72.10;;;;;;5090811;28;20031;-62
2022/04/05 06:58:19;;;;;;;15.23;7.10;;;9.40;72.00;;;;;;5085404;28;20498;-62
2022/04/05 07:00:45;;;;;;;14.20;7.00;;;9.40;72.00;;;;;;5096813;28;20126;-62
2022/04/05 07:03:10;;;;;;;14.65;5.82;;;9.40;71.80;;;;;;5096795;28;20581;-62
2022/04/05 07:05:36;;;;;;;10.55;5.75;;;9.40;71.80;;;;;;5094532;27;20034;-62
2022/04/05 07:08:02;;;;;;;16.67;6.35;;;9.40;71.70;;;;;;5073045;27;20091;-61
2022/04/05 07:10:27;;;;;;;14.45;5.80;;;9.40;71.60;;;;;;5071964;28;20112;-62
2022/04/05 07:12:53;;;;;;;10.85;6.20;;;9.50;71.70;;;;;;5107810;27;20050;-61
2022/04/05 07:15:18;;;;;;;12.32;6.40;;;9.50;71.60;;;;;;5087522;27;20114;-62
2022/04/05 07:17:44;;;;;;;11.23;5.72;;;9.50;71.60;;;;;;5079165;28;20039;-62
2022/04/05 07:20:10;;;;;;;16.98;6.45;;;9.40;71.70;;;;;;5081456;28;20028;-62
2022/04/05 07:22:36;;;;;;;13.90;5.72;;;9.50;71.70;;;;;;5098630;27;20039;-62
2022/04/05 07:25:03;;;;;;;11.43;5.60;;;9.50;71.60;;;;;;5083804;28;20028;-61
2022/04/05 07:27:29;;;;;;;12.57;6.65;;;9.50;71.50;;;;;;5079620;28;20777;-61
2022/04/05 07:29:54;;;;;;;18.33;5.80;;;9.50;71.50;;;;;;5082369;28;20054;-62
2022/04/05 07:32:20;;;;;;;18.35;6.28;;;9.50;71.40;;;;;;5084307;28;20388;-62
2022/04/05 07:34:45;;;;;;;20.70;6.40;;;9.50;71.60;;;;;;5090242;27;20039;-61
2022/04/05 07:37:11;;;;;;;21.52;6.93;;;9.50;71.90;;;;;;5082217;27;20024;-62
2022/04/05 07:39:38;;;;;;;19.42;6.07;;;9.50;71.80;;;;;;5084874;28;20043;-62
2022/04/05 07:42:04;;;;;;;20.83;5.78;;;9.50;71.60;;;;;;5084375;27;20527;-62
2022/04/05 07:44:29;;;;;;;27.20;7.32;;;9.50;71.60;;;;;;5104356;27;20162;-62
2022/04/05 07:46:55;;;;;;;25.50;6.88;;;9.60;71.60;;;;;;5108973;27;20095;-62
2022/04/05 07:49:20;;;;;;;26.67;7.97;;;9.60;71.70;;;;;;5104067;27;20452;-62
2022/04/05 07:51:46;;;;;;;18.83;6.65;;;9.60;71.70;;;;;;5085191;27;20031;-62
2022/04/05 07:54:11;;;;;;;31.60;7.65;;;9.60;72.50;;;;;;5084323;28;20051;-62
2022/04/05 07:56:37;;;;;;;26.98;7.38;;;9.60;71.80;;;;;;5103894;27;20032;-62
2022/04/05 07:59:02;;;;;;;23.98;7.35;;;9.60;71.70;;;;;;5085888;27;20369;-62
2022/04/05 08:01:29;;;;;;;22.70;7.22;;;9.60;71.60;;;;;;5086519;28;20063;-62
2022/04/05 08:03:58;;;;;;;35.28;8.15;;;9.60;71.50;;;;;;5106021;27;20035;-62
2022/04/05 08:06:24;;;;;;;28.33;8.48;;;9.70;71.70;;;;;;5082649;28;20036;-61
2022/04/05 08:08:50;;;;;;;36.47;8.65;;;9.70;71.60;;;;;;5082340;28;20032;-62
2022/04/05 08:11:15;;;;;;;36.65;8.45;;;9.70;71.60;;;;;;5074993;28;20044;-61
2022/04/05 08:13:41;;;;;;;26.08;7.10;;;9.70;71.50;;;;;;5068003;28;20019;-61
2022/04/05 08:16:06;;;;;;;35.67;7.85;;;9.70;71.60;;;;;;5103923;27;20066;-61
2022/04/05 08:18:32;;;;;;;40.78;8.30;;;9.80;71.50;;;;;;5077160;27;20043;-61
2022/04/05 08:20:57;;;;;;;37.55;8.43;;;9.80;71.50;;;;;;5105255;27;20058;-63
2022/04/05 08:23:23;;;;;;;65.97;11.50;;;9.80;71.60;;;;;;5079641;28;20102;-61
2022/04/05 08:25:49;;;;;;;49.95;9.80;;;9.80;71.70;;;;;;5080997;28;20034;-61
2022/04/05 08:28:14;;;;;;;43.80;8.80;;;9.80;71.60;;;;;;5104090;27;20019;-61
2022/04/05 08:30:40;;;;;;;37.00;8.15;;;9.80;71.60;;;;;;5077200;27;20105;-62
2022/04/05 08:33:05;;;;;;;41.42;7.90;;;9.90;71.60;;;;;;5097276;27;20058;-62
2022/04/05 08:35:31;;;;;;;42.80;8.93;;;9.90;71.90;;;;;;5087124;27;20046;-61
2022/04/05 08:37:57;;;;;;;66.22;12.15;;;9.90;72.00;;;;;;5117999;27;20026;-62
2022/04/05 08:40:23;;;;;;;51.60;9.90;;;10.00;72.30;;;;;;5085484;27;20027;-62
2022/04/05 08:42:51;;;;;;;55.90;11.40;;;10.00;72.30;;;;;;5100786;27;20027;-62
2022/04/05 08:45:18;;;;;;;78.07;12.15;;;10.00;72.20;;;;;;5099042;27;20026;-62
2022/04/05 08:47:46;;;;;;;121.45;16.85;;;10.10;72.20;;;;;;5119679;27;20039;-62
2022/04/05 08:50:13;;;;;;;92.05;13.80;;;10.10;72.30;;;;;;5078309;27;20083;-62
2022/04/05 08:52:38;;;;;;;107.25;14.93;;;10.10;72.40;;;;;;5081207;27;20107;-61
2022/04/05 08:55:04;;;;;;;91.50;12.38;;;10.10;72.40;;;;;;5114620;27;20479;-62
2022/04/05 08:57:30;;;;;;;86.03;14.43;;;10.10;72.40;;;;;;5097805;27;20450;-62
2022/04/05 08:59:55;;;;;;;105.30;13.73;;;10.20;72.40;;;;;;5084545;27;20043;-62
2022/04/05 09:02:24;;;;;;;89.82;12.43;;;10.20;72.60;;;;;;5095847;27;20027;-62
2022/04/05 09:04:50;;;;;;;97.25;12.45;;;10.20;72.40;;;;;;5116894;27;20023;-62
2022/04/05 09:07:32;;;;;;;89.97;13.95;;;10.20;72.40;;;;;;5098951;27;20342;-62
2022/04/05 09:10:14;;;;;;;59.03;10.82;;;10.30;72.60;;;;;;5081880;27;20031;-59
2022/04/05 09:12:45;;;;;;;67.75;11.05;;;10.30;72.40;;;;;;5113065;27;20165;-59
2022/04/05 09:15:23;;;;;;;58.28;10.35;;;10.30;72.20;;;;;;5094840;27;20031;-60
2022/04/05 09:17:49;;;;;;;105.00;12.38;;;10.30;72.10;;;;;;5096481;27;20031;-60
2022/04/05 09:20:20;;;;;;;83.63;13.95;;;10.40;72.40;;;;;;5100022;27;20027;-59
2022/04/05 09:22:46;;;;;;;88.68;13.95;;;10.40;72.50;;;;;;5116950;27;20049;-59
2022/04/05 09:25:15;;;;;;;75.28;11.50;;;10.40;72.60;;;;;;5084343;27;20486;-59
2022/04/05 09:27:57;;;;;;;71.95;10.80;;;10.50;72.60;;;;;;5100601;27;20030;-59
2022/04/05 09:30:24;;;;;;;85.18;12.02;;;10.50;72.30;;;;;;5117390;27;20126;-59
2022/04/05 09:32:51;;;;;;;74.75;12.77;;;10.50;72.30;;;;;;5067174;28;20360;-59
2022/04/05 09:35:21;;;;;;;80.90;12.82;;;10.60;72.30;;;;;;5113419;27;20122;-62
2022/04/05 09:37:47;;;;;;;198.40;21.80;;;10.60;72.40;;;;;;5108099;27;20031;-62
2022/04/05 09:40:16;;;;;;;101.63;14.95;;;10.60;72.60;;;;;;5095211;27;20327;-60
2022/04/05 09:42:58;;;;;;;81.50;13.90;;;10.60;72.60;;;;;;5075503;27;20430;-60
2022/04/05 09:45:44;;;;;;;72.65;13.90;;;10.70;72.30;;;;;;5095927;27;20046;-60
2022/04/05 09:48:10;;;;;;;81.18;12.20;;;10.70;72.20;;;;;;5098906;27;20031;-60
2022/04/05 09:51:17;;;;;;;75.57;11.82;;;10.80;72.10;;;;;;5088665;27;20111;-60
2022/04/05 09:53:47;;;;;;;93.53;14.02;;;10.80;72.20;;;;;;5097859;27;20035;-60
2022/04/05 09:56:26;;;;;;;69.80;11.95;;;10.80;72.00;;;;;;5114895;27;20168;-60
2022/04/05 09:59:04;;;;;;;87.20;12.23;;;10.90;72.00;;;;;;5088578;28;20388;-60
2022/04/05 10:01:32;;;;;;;97.00;14.05;;;10.90;71.80;;;;;;5094457;27;20184;-60
2022/04/05 10:04:10;;;;;;;95.95;14.32;;;11.00;71.90;;;;;;5115925;27;20032;-60
2022/04/05 10:06:42;;;;;;;108.32;14.10;;;11.00;72.10;;;;;;5095973;27;20027;-60
2022/04/05 10:09:08;;;;;;;125.85;17.58;;;11.00;73.00;;;;;;5088755;28;20047;-60
2022/04/05 10:11:35;;;;;;;81.63;15.75;;;11.10;72.50;;;;;;5084819;27;20454;-60
2022/04/05 10:14:01;;;;;;;98.82;15.00;;;11.30;72.60;;;;;;5092875;28;20031;-60
2022/04/05 10:16:28;;;;;;;92.78;15.00;;;11.20;72.40;;;;;;5073624;27;20044;-60
2022/04/05 10:19:05;;;;;;;99.60;13.80;;;11.20;72.40;;;;;;5076736;28;20028;-60
2022/04/05 10:21:34;;;;;;;97.07;13.90;;;11.20;72.20;;;;;;5069300;28;20084;-60
2022/04/05 10:24:00;;;;;;;117.20;16.85;;;11.20;72.30;;;;;;5054497;28;20051;-60
2022/04/05 10:26:27;;;;;;;85.07;15.20;;;11.30;72.40;;;;;;5105229;27;20053;-60
2022/04/05 10:28:53;;;;;;;127.43;19.35;;;11.30;72.80;;;;;;5076529;27;20028;-60
2022/04/05 10:31:49;;;;;;;126.03;19.05;;;11.30;72.70;;;;;;5098230;27;20094;-60
2022/04/05 10:34:27;;;;;;;108.70;17.05;;;11.50;72.80;;;;;;5074860;27;20686;-60
2022/04/05 10:37:10;;;;;;;104.47;16.00;;;11.40;72.60;;;;;;5061663;28;20050;-60
2022/04/05 10:39:36;;;;;;;123.20;17.48;;;11.50;72.60;;;;;;5077117;28;20046;-60
2022/04/05 10:42:08;;;;;;;129.07;18.50;;;11.50;72.60;;;;;;5090289;28;20055;-60
2022/04/05 10:44:34;;;;;;;122.53;15.88;;;11.50;72.80;;;;;;5097715;27;20051;-59
2022/04/05 10:47:01;;;;;;;149.25;20.52;;;11.60;72.50;;;;;;5073097;28;20571;-60
2022/04/05 10:49:37;;;;;;;126.35;17.85;;;11.60;72.80;;;;;;5095358;27;20051;-60
2022/04/05 10:52:09;;;;;;;108.45;17.33;;;11.60;72.50;;;;;;5112286;27;20118;-60
2022/04/05 10:54:42;;;;;;;149.90;20.70;;;11.60;72.50;;;;;;5111025;27;20049;-60
2022/04/05 10:57:29;;;;;;;147.93;20.30;;;11.70;72.60;;;;;;5075906;28;20088;-60
2022/04/05 10:59:55;;;;;;;139.25;20.88;;;11.70;73.20;;;;;;5091107;28;20086;-60
2022/04/05 11:02:35;;;;;;;177.95;21.23;;;11.70;72.60;;;;;;5089775;28;20053;-60
2022/04/05 11:05:19;;;;;;;155.48;20.60;;;11.80;72.80;;;;;;5108813;27;20143;-60
2022/04/05 11:07:54;;;;;;;191.02;24.45;;;11.80;72.70;;;;;;5102145;28;20149;-60
2022/04/05 11:10:45;;;;;;;201.68;25.77;;;11.70;72.70;;;;;;5098470;27;20031;-60
2022/04/05 11:13:30;;;;;;;180.52;25.15;;;11.80;72.80;;;;;;5092136;28;20059;-60
2022/04/05 11:15:56;;;;;;;128.57;17.90;;;11.90;72.80;;;;;;5082409;28;20043;-60
2022/04/05 11:18:27;;;;;;;143.68;20.52;;;11.90;72.10;;;;;;5081164;28;20058;-60
2022/04/05 11:20:54;;;;;;;169.90;22.88;;;12.00;72.00;;;;;;5071833;28;20077;-60
2022/04/05 11:23:20;;;;;;;148.45;22.60;;;12.00;71.90;;;;;;5099040;27;20031;-60
2022/04/05 11:25:46;;;;;;;211.70;24.02;;;12.10;72.00;;;;;;5086960;28;20028;-60
2022/04/05 11:28:16;;;;;;;180.57;23.45;;;12.30;72.00;;;;;;5116570;27;20024;-60
2022/04/05 11:30:49;;;;;;;180.85;23.75;;;12.20;71.60;;;;;;5088090;28;20525;-60
2022/04/05 11:33:20;;;;;;;164.10;23.98;;;12.20;71.40;;;;;;5085082;27;20150;-60
2022/04/05 11:35:56;;;;;;;117.47;19.80;;;12.30;71.30;;;;;;5102972;27;20032;-60
2022/04/05 11:38:22;;;;;;;137.93;19.30;;;12.40;71.30;;;;;;5075841;28;20031;-60
2022/04/05 11:40:49;;;;;;;133.85;18.80;;;12.40;70.90;;;;;;5092879;28;20022;-60
2022/04/05 11:43:24;;;;;;;152.52;21.70;;;12.50;70.80;;;;;;5087858;27;20027;-60
2022/04/05 11:45:55;;;;;;;138.27;21.35;;;12.50;70.80;;;;;;5100716;27;20172;-60
2022/04/05 11:48:21;;;;;;;116.68;18.88;;;12.60;70.50;;;;;;5101245;28;20027;-60
2022/04/05 11:50:48;;;;;;;126.32;18.63;;;12.70;70.50;;;;;;5106351;27;20027;-60
2022/04/05 11:53:26;;;;;;;120.40;19.90;;;12.70;70.20;;;;;;5098640;27;20543;-60
2022/04/05 11:56:02;;;;;;;112.40;17.35;;;12.80;70.30;;;;;;5085893;27;20042;-60
2022/04/05 11:58:30;;;;;;;;;;;12.80;70.30;;;;;;5115642;27;20090;-61
2022/04/05 12:00:56;;;;;;;102.80;16.48;;;12.90;70.10;;;;;;5103800;27;19932;-62
2022/04/05 12:03:22;;;;;;;86.72;14.93;;;12.90;69.80;;;;;;5076513;28;20027;-60
2022/04/05 12:05:47;;;;;;;109.03;15.95;;;13.00;69.70;;;;;;5096555;27;20028;-60
2022/04/05 12:08:13;;;;;;;91.38;15.65;;;13.00;69.90;;;;;;5095687;27;20712;-60
2022/04/05 12:10:43;;;;;;;94.70;14.32;;;13.00;69.70;;;;;;5047369;27;21106;-60
2022/04/05 12:13:08;;;;;;;97.22;14.15;;;13.10;69.70;;;;;;5063838;27;20084;-60
2022/04/05 12:15:35;;;;;;;87.68;14.27;;;13.10;69.70;;;;;;5068107;27;20607;-60
2022/04/05 12:18:22;;;;;;;66.57;12.52;;;13.10;69.80;;;;;;5094805;27;20300;-60
2022/04/05 12:21:05;;;;;;;72.65;12.65;;;13.20;69.70;;;;;;5074479;27;20031;-60
2022/04/05 12:23:33;;;;;;;64.45;12.80;;;13.20;69.80;;;;;;5107493;27;20633;-60
2022/04/05 12:26:05;;;;;;;69.38;12.70;;;13.20;69.70;;;;;;5095214;27;20516;-60
2022/04/05 12:28:31;;;;;;;71.43;11.75;;;13.30;69.80;;;;;;5101845;27;20031;-61
2022/04/05 12:31:03;;;;;;;77.30;14.18;;;13.30;69.80;;;;;;5086542;27;20127;-61
2022/04/05 12:33:29;;;;;;;82.28;13.18;;;13.40;69.80;;;;;;5110555;27;20331;-60
2022/04/05 12:35:54;;;;;;;88.00;12.95;;;13.40;69.70;;;;;;5103440;27;20023;-60
2022/04/05 12:38:20;;;;;;;90.45;14.23;;;13.50;69.60;;;;;;5101187;27;20104;-60
2022/04/05 12:40:45;;;;;;;89.25;13.52;;;13.60;69.80;;;;;;5078267;27;20495;-60